Time;durP1;ratioP1;P1;durP2;ratioP2;P2;SDS_P1;SDS_P2;PMS_P1;PMS_P2;Temp;Humidity;BMP_temperature;BMP_pressure;BME280_temperature;BME280_humidity;BME280_pressure;Samples;Min_cycle;Max_cycle;Signal;HPM_P1;HPM_P2
2021/09/19 00:02:07;;;;;;;66.50;40.90;;;17.60;99.90;;;;;;5012495;28;20030;-60
2021/09/19 00:04:33;;;;;;;60.00;41.20;;;17.60;99.90;;;;;;5011883;28;20108;-61
2021/09/19 00:06:59;;;;;;;66.45;42.88;;;17.50;99.90;;;;;;5012313;28;20407;-61
2021/09/19 00:09:25;;;;;;;65.35;40.80;;;17.50;99.90;;;;;;4997936;28;20503;-59
2021/09/19 00:11:50;;;;;;;62.28;41.03;;;17.50;99.90;;;;;;5012254;28;20044;-60
2021/09/19 00:14:17;;;;;;;62.78;41.22;;;17.50;99.90;;;;;;5004552;28;20125;-61
2021/09/19 00:16:43;;;;;;;69.10;42.88;;;17.40;99.90;;;;;;4992763;28;20073;-60
2021/09/19 00:19:12;;;;;;;68.30;42.83;;;17.40;99.90;;;;;;4991868;28;20503;-60
2021/09/19 00:21:39;;;;;;;65.60;42.33;;;17.30;99.90;;;;;;4992407;28;20058;-61
2021/09/19 00:24:05;;;;;;;61.70;39.88;;;17.30;99.90;;;;;;4992093;28;20053;-62
2021/09/19 00:26:30;;;;;;;63.63;40.88;;;17.40;99.90;;;;;;4992554;28;20034;-61
2021/09/19 00:28:56;;;;;;;63.42;41.10;;;17.40;99.90;;;;;;4992606;28;20076;-62
2021/09/19 00:31:22;;;;;;;68.63;41.63;;;17.40;99.90;;;;;;4991909;28;20053;-61
2021/09/19 00:33:48;;;;;;;66.20;42.22;;;17.40;99.90;;;;;;4992501;28;20100;-59
2021/09/19 00:36:13;;;;;;;69.32;42.25;;;17.30;99.90;;;;;;4992010;28;20454;-60
2021/09/19 00:38:39;;;;;;;68.97;42.60;;;17.30;99.90;;;;;;4992438;28;20037;-60
2021/09/19 00:41:05;;;;;;;60.10;39.63;;;17.30;99.90;;;;;;4991651;28;20088;-60
2021/09/19 00:43:30;;;;;;;61.42;41.20;;;17.30;99.90;;;;;;4991238;28;20023;-60
2021/09/19 00:45:56;;;;;;;64.03;40.28;;;17.40;99.90;;;;;;4991518;28;20483;-59
2021/09/19 00:48:22;;;;;;;65.82;39.20;;;17.40;99.90;;;;;;4992420;28;20061;-62
2021/09/19 00:50:48;;;;;;;63.90;39.22;;;17.40;99.90;;;;;;4991450;28;20031;-60
2021/09/19 00:53:14;;;;;;;62.72;38.97;;;17.40;99.90;;;;;;4978785;28;20033;-61
2021/09/19 00:55:43;;;;;;;61.58;39.35;;;17.40;99.90;;;;;;4991304;28;20027;-60
2021/09/19 00:58:13;;;;;;;58.95;38.78;;;17.40;99.90;;;;;;4992314;28;20018;-62
2021/09/19 01:00:43;;;;;;;61.28;39.22;;;17.40;99.90;;;;;;4991093;28;20026;-62
2021/09/19 01:03:09;;;;;;;56.40;38.40;;;17.40;99.90;;;;;;4991838;28;20023;-61
2021/09/19 01:05:34;;;;;;;62.70;38.53;;;17.40;99.90;;;;;;4991331;28;20384;-61
2021/09/19 01:08:01;;;;;;;58.08;38.38;;;17.40;99.90;;;;;;4991793;28;20376;-60
2021/09/19 01:10:26;;;;;;;61.97;39.67;;;17.40;99.90;;;;;;4991165;28;20045;-60
2021/09/19 01:12:54;;;;;;;61.45;39.70;;;17.40;99.90;;;;;;4992265;28;20027;-61
2021/09/19 01:15:21;;;;;;;64.10;38.92;;;17.40;99.90;;;;;;4991421;28;20093;-61
2021/09/19 01:17:47;;;;;;;61.53;38.67;;;17.40;99.90;;;;;;4991991;28;20030;-61
2021/09/19 01:20:13;;;;;;;60.20;38.60;;;17.40;99.90;;;;;;4991494;28;20358;-61
2021/09/19 01:22:45;;;;;;;65.15;39.78;;;17.40;99.90;;;;;;4991641;28;20548;-61
2021/09/19 01:25:14;;;;;;;60.53;38.40;;;17.40;99.90;;;;;;4991006;28;20133;-60
2021/09/19 01:27:40;;;;;;;53.00;36.55;;;17.40;99.90;;;;;;4991858;28;20030;-60
2021/09/19 01:30:08;;;;;;;59.45;38.47;;;17.40;99.90;;;;;;4990913;28;20050;-60
2021/09/19 01:32:34;;;;;;;57.72;38.35;;;17.50;99.90;;;;;;4991745;28;20088;-60
2021/09/19 01:35:00;;;;;;;60.72;38.42;;;17.50;99.90;;;;;;4991079;28;20033;-62
2021/09/19 01:37:26;;;;;;;63.22;39.30;;;17.50;99.90;;;;;;4991529;28;20043;-60
2021/09/19 01:39:53;;;;;;;60.05;38.42;;;17.50;99.90;;;;;;4991075;28;20041;-60
2021/09/19 01:42:18;;;;;;;65.70;39.88;;;17.40;99.90;;;;;;4991262;28;20027;-59
2021/09/19 01:44:44;;;;;;;63.08;39.90;;;17.40;99.90;;;;;;4991180;28;20096;-60
2021/09/19 01:47:10;;;;;;;65.50;40.10;;;17.30;99.90;;;;;;4991413;28;20105;-62
2021/09/19 01:49:36;;;;;;;60.38;38.33;;;17.30;99.90;;;;;;4990903;28;20026;-60
2021/09/19 01:52:01;;;;;;;63.28;38.60;;;17.30;99.90;;;;;;4991097;28;20116;-60
2021/09/19 01:54:28;;;;;;;61.97;39.45;;;17.30;99.90;;;;;;4991492;28;20047;-61
2021/09/19 01:56:54;;;;;;;65.72;39.20;;;17.30;99.90;;;;;;4991128;28;20860;-61
2021/09/19 01:59:19;;;;;;;68.90;40.55;;;17.20;99.90;;;;;;4991359;28;20046;-60
2021/09/19 02:01:45;;;;;;;63.88;40.03;;;17.20;99.90;;;;;;4990702;28;20034;-62
2021/09/19 02:04:11;;;;;;;62.80;39.47;;;17.20;99.90;;;;;;4991712;28;20026;-60
2021/09/19 02:06:36;;;;;;;62.13;41.50;;;17.20;99.90;;;;;;4990635;28;20540;-60
2021/09/19 02:09:03;;;;;;;58.70;38.08;;;17.20;99.90;;;;;;4991815;28;20034;-59
2021/09/19 02:11:28;;;;;;;61.20;39.08;;;17.10;99.90;;;;;;4990362;28;20041;-60
2021/09/19 02:13:54;;;;;;;63.78;39.17;;;17.10;99.90;;;;;;4994209;28;20102;-60
2021/09/19 02:16:21;;;;;;;61.78;40.60;;;17.10;99.90;;;;;;4994275;28;20034;-63
2021/09/19 02:18:49;;;;;;;62.08;40.00;;;17.10;99.90;;;;;;4995002;28;20030;-60
2021/09/19 02:21:15;;;;;;;64.53;41.03;;;17.10;99.90;;;;;;4994262;28;20384;-59
2021/09/19 02:23:41;;;;;;;65.90;41.95;;;17.00;99.90;;;;;;4994635;28;20484;-59
2021/09/19 02:26:07;;;;;;;64.00;41.47;;;17.00;99.90;;;;;;4994330;28;20029;-61
2021/09/19 02:28:33;;;;;;;58.97;38.92;;;17.00;99.90;;;;;;4995103;28;20034;-60
2021/09/19 02:30:59;;;;;;;56.17;37.78;;;16.90;99.90;;;;;;4993824;28;20046;-60
2021/09/19 02:33:25;;;;;;;59.00;40.13;;;17.00;99.90;;;;;;4994819;28;20033;-59
2021/09/19 02:35:51;;;;;;;62.45;38.53;;;16.90;99.90;;;;;;4993822;28;20031;-60
2021/09/19 02:38:16;;;;;;;61.88;38.78;;;16.90;99.90;;;;;;4994787;28;20543;-60
2021/09/19 02:40:42;;;;;;;57.88;38.15;;;16.80;99.90;;;;;;4994111;28;20095;-59
2021/09/19 02:43:08;;;;;;;57.28;38.22;;;16.80;99.90;;;;;;4994760;28;20038;-59
2021/09/19 02:45:34;;;;;;;57.03;38.20;;;16.80;99.90;;;;;;4993779;28;20030;-60
2021/09/19 02:47:59;;;;;;;57.80;38.80;;;16.80;99.90;;;;;;4993056;28;20023;-60
2021/09/19 02:50:26;;;;;;;59.85;37.97;;;16.70;99.90;;;;;;4993946;28;20038;-61
2021/09/19 02:52:52;;;;;;;56.50;36.85;;;16.70;99.90;;;;;;4994238;28;20034;-61
2021/09/19 02:55:20;;;;;;;60.70;37.15;;;16.70;99.90;;;;;;4993876;28;20058;-61
2021/09/19 02:57:46;;;;;;;59.25;38.33;;;16.70;99.90;;;;;;4994078;28;20045;-60
2021/09/19 03:00:16;;;;;;;60.67;38.38;;;16.70;99.90;;;;;;4993928;28;20026;-60
2021/09/19 03:02:42;;;;;;;54.20;36.35;;;16.70;99.90;;;;;;4994090;28;20033;-62
2021/09/19 03:05:09;;;;;;;54.83;35.75;;;16.60;99.90;;;;;;4980158;28;20084;-61
2021/09/19 03:07:34;;;;;;;52.83;36.42;;;16.60;99.90;;;;;;4994009;28;20038;-59
2021/09/19 03:10:00;;;;;;;52.50;35.63;;;16.60;99.90;;;;;;4993836;28;20026;-59
2021/09/19 03:12:26;;;;;;;52.60;35.30;;;16.60;99.90;;;;;;4993228;28;20459;-60
2021/09/19 03:14:51;;;;;;;54.08;37.15;;;16.60;99.90;;;;;;4994276;28;20117;-60
2021/09/19 03:17:17;;;;;;;55.70;37.20;;;16.60;99.90;;;;;;4993148;28;20030;-60
2021/09/19 03:19:43;;;;;;;57.40;36.40;;;16.60;99.90;;;;;;4994185;28;20038;-60
2021/09/19 03:22:08;;;;;;;54.70;36.40;;;16.60;99.90;;;;;;4993265;28;20030;-59
2021/09/19 03:24:34;;;;;;;52.08;35.85;;;16.60;99.90;;;;;;4993950;28;20429;-60
2021/09/19 03:27:00;;;;;;;54.28;36.10;;;16.60;99.90;;;;;;4992938;28;20113;-60
2021/09/19 03:29:26;;;;;;;58.35;36.50;;;16.70;99.90;;;;;;4993561;28;20026;-59
2021/09/19 03:31:51;;;;;;;51.22;34.95;;;16.60;99.90;;;;;;4991714;28;20069;-61
2021/09/19 03:34:17;;;;;;;55.05;34.88;;;16.60;99.90;;;;;;4993588;28;20046;-61
2021/09/19 03:36:43;;;;;;;52.17;35.03;;;16.60;99.90;;;;;;4993105;28;20560;-62
2021/09/19 03:39:09;;;;;;;54.90;34.38;;;16.60;99.90;;;;;;4993836;28;20029;-59
2021/09/19 03:41:35;;;;;;;52.03;34.50;;;16.60;99.90;;;;;;4992746;28;20022;-59
2021/09/19 03:44:01;;;;;;;50.75;33.97;;;16.60;99.90;;;;;;4993348;28;20034;-60
2021/09/19 03:46:27;;;;;;;49.88;33.55;;;16.60;99.90;;;;;;4992987;28;20029;-61
2021/09/19 03:48:53;;;;;;;52.58;36.25;;;16.60;99.90;;;;;;4993624;28;20117;-59
2021/09/19 03:51:19;;;;;;;46.78;33.55;;;16.60;99.90;;;;;;4992386;28;20772;-61
2021/09/19 03:53:45;;;;;;;48.42;32.67;;;16.60;99.90;;;;;;4993618;28;20153;-61
2021/09/19 03:56:11;;;;;;;49.90;33.47;;;16.60;99.90;;;;;;4992066;28;20042;-60
2021/09/19 03:58:37;;;;;;;49.25;32.70;;;16.50;99.90;;;;;;5003945;28;20187;-60
2021/09/19 04:01:03;;;;;;;46.78;31.48;;;16.50;99.90;;;;;;5011861;28;20468;-61
2021/09/19 04:03:28;;;;;;;46.70;31.55;;;16.50;99.90;;;;;;5012838;28;20034;-58
2021/09/19 04:05:54;;;;;;;52.90;33.90;;;16.50;99.90;;;;;;5012127;28;20056;-61
2021/09/19 04:08:20;;;;;;;48.47;32.42;;;16.40;99.90;;;;;;5012362;28;20033;-60
2021/09/19 04:10:45;;;;;;;49.55;32.05;;;16.40;99.90;;;;;;5011983;28;20488;-61
2021/09/19 04:13:11;;;;;;;46.58;32.33;;;16.40;99.90;;;;;;5013124;28;20103;-60
2021/09/19 04:15:37;;;;;;;46.22;31.25;;;16.40;99.90;;;;;;5011671;28;20038;-60
2021/09/19 04:18:03;;;;;;;48.92;32.63;;;16.40;99.90;;;;;;5012545;28;20038;-59
2021/09/19 04:20:28;;;;;;;47.35;30.80;;;16.40;99.90;;;;;;5012736;28;20514;-60
2021/09/19 04:22:54;;;;;;;47.50;30.45;;;16.40;99.90;;;;;;5012125;28;20022;-61
2021/09/19 04:25:20;;;;;;;45.55;31.50;;;16.40;99.90;;;;;;5012432;28;20041;-60
2021/09/19 04:27:45;;;;;;;46.65;31.85;;;16.40;99.90;;;;;;4997739;28;20479;-60
2021/09/19 04:30:12;;;;;;;47.80;30.75;;;16.30;99.90;;;;;;5012140;28;20054;-59
2021/09/19 04:32:38;;;;;;;46.45;31.50;;;16.30;99.90;;;;;;5011016;28;20038;-62
2021/09/19 04:35:04;;;;;;;48.55;31.15;;;16.30;99.90;;;;;;5010347;28;20037;-60
2021/09/19 04:37:30;;;;;;;45.92;30.70;;;16.30;99.90;;;;;;5011751;28;20030;-60
2021/09/19 04:39:56;;;;;;;46.35;30.65;;;16.30;99.90;;;;;;5012118;28;20105;-61
2021/09/19 04:42:25;;;;;;;48.33;30.80;;;16.30;99.90;;;;;;5011191;28;20420;-60
2021/09/19 04:44:51;;;;;;;45.28;31.30;;;16.30;99.90;;;;;;5011891;28;20753;-60
2021/09/19 04:47:17;;;;;;;47.58;30.95;;;16.30;99.90;;;;;;5011530;28;20037;-60
2021/09/19 04:49:42;;;;;;;46.83;30.20;;;16.30;99.90;;;;;;5010499;28;20069;-60
2021/09/19 04:52:08;;;;;;;49.70;31.20;;;16.30;99.90;;;;;;5011036;28;20041;-61
2021/09/19 04:54:34;;;;;;;50.00;31.67;;;16.30;99.90;;;;;;5011698;28;20041;-60
2021/09/19 04:57:00;;;;;;;41.00;29.85;;;16.30;99.90;;;;;;5010871;28;20114;-61
2021/09/19 04:59:26;;;;;;;46.33;32.10;;;16.30;99.90;;;;;;5011942;28;20381;-60
2021/09/19 05:01:52;;;;;;;46.30;31.83;;;16.30;99.90;;;;;;5006741;28;20033;-60
2021/09/19 05:04:17;;;;;;;43.58;29.98;;;16.30;99.90;;;;;;4992708;28;20086;-60
2021/09/19 05:06:43;;;;;;;42.38;29.48;;;16.30;99.90;;;;;;5006760;28;20477;-59
2021/09/19 05:09:09;;;;;;;52.40;31.60;;;16.30;99.90;;;;;;5010367;28;20036;-60
2021/09/19 05:11:35;;;;;;;44.22;30.50;;;16.30;99.90;;;;;;5011050;28;20081;-60
2021/09/19 05:14:01;;;;;;;43.90;29.17;;;16.30;99.90;;;;;;5011390;28;20026;-60
2021/09/19 05:16:27;;;;;;;45.13;28.90;;;16.30;99.90;;;;;;5011176;28;20100;-61
2021/09/19 05:18:57;;;;;;;43.38;29.60;;;16.30;99.90;;;;;;5011482;28;20022;-60
2021/09/19 05:21:23;;;;;;;46.15;30.33;;;16.30;99.90;;;;;;5011014;28;20026;-61
2021/09/19 05:23:49;;;;;;;46.60;30.35;;;16.30;99.90;;;;;;4997532;28;20089;-60
2021/09/19 05:26:14;;;;;;;44.30;30.48;;;16.30;99.90;;;;;;5011278;28;20376;-61
2021/09/19 05:28:40;;;;;;;48.85;30.10;;;16.30;99.90;;;;;;5011085;28;20030;-60
2021/09/19 05:31:06;;;;;;;44.45;29.50;;;16.30;99.90;;;;;;5010850;28;20049;-59
2021/09/19 05:33:31;;;;;;;44.92;30.08;;;16.30;99.90;;;;;;5011166;28;20025;-61
2021/09/19 05:35:57;;;;;;;43.20;28.85;;;16.30;99.90;;;;;;5011370;28;20026;-62
2021/09/19 05:38:23;;;;;;;57.05;30.58;;;16.30;99.90;;;;;;5010845;28;20048;-59
2021/09/19 05:40:49;;;;;;;47.90;29.15;;;16.40;99.90;;;;;;5011140;28;20132;-60
2021/09/19 05:43:15;;;;;;;48.05;29.50;;;16.40;99.90;;;;;;5010657;28;20465;-60
2021/09/19 05:45:40;;;;;;;54.30;30.77;;;16.40;99.90;;;;;;5011240;28;20040;-60
2021/09/19 05:48:06;;;;;;;47.08;29.08;;;16.50;99.90;;;;;;5014359;28;20029;-61
2021/09/19 05:50:32;;;;;;;50.92;29.83;;;16.40;99.90;;;;;;5015298;28;20404;-62
2021/09/19 05:52:58;;;;;;;55.72;31.15;;;16.40;99.90;;;;;;5014264;28;20088;-61
2021/09/19 05:55:23;;;;;;;45.38;29.08;;;16.40;99.90;;;;;;5015065;28;20479;-59
2021/09/19 05:57:49;;;;;;;50.97;30.75;;;16.40;99.90;;;;;;5014268;28;20022;-60
2021/09/19 06:00:15;;;;;;;53.90;29.88;;;16.40;99.90;;;;;;5015475;28;20033;-61
2021/09/19 06:02:41;;;;;;;46.97;29.67;;;16.40;99.90;;;;;;5014392;28;20594;-59
2021/09/19 06:05:07;;;;;;;50.90;29.55;;;16.40;99.90;;;;;;4987649;28;20415;-61
2021/09/19 06:07:33;;;;;;;46.85;30.05;;;16.40;99.90;;;;;;5014157;28;20029;-59
2021/09/19 06:09:59;;;;;;;56.83;31.13;;;16.40;99.90;;;;;;5014648;28;20531;-60
2021/09/19 06:12:25;;;;;;;53.30;30.48;;;16.40;99.90;;;;;;5014302;28;20045;-60
2021/09/19 06:14:51;;;;;;;49.30;30.92;;;16.50;99.90;;;;;;5015228;28;20037;-62
2021/09/19 06:17:20;;;;;;;52.85;30.67;;;16.50;99.90;;;;;;5013958;28;20034;-61
2021/09/19 06:19:47;;;;;;;48.70;30.25;;;16.60;99.90;;;;;;5014959;28;20030;-59
2021/09/19 06:22:13;;;;;;;47.75;29.45;;;16.60;99.90;;;;;;5013849;28;20041;-60
2021/09/19 06:24:39;;;;;;;50.60;29.80;;;16.50;99.90;;;;;;5014615;28;20030;-62
2021/09/19 06:27:04;;;;;;;49.03;29.70;;;16.50;99.90;;;;;;5012952;28;20057;-61
2021/09/19 06:29:30;;;;;;;43.30;28.45;;;16.40;99.90;;;;;;5001833;28;20053;-61
2021/09/19 06:31:56;;;;;;;45.13;29.08;;;16.40;99.90;;;;;;5013916;28;20128;-62
2021/09/19 06:34:22;;;;;;;54.47;31.30;;;16.50;99.90;;;;;;5013787;28;20387;-59
2021/09/19 06:36:47;;;;;;;51.80;31.05;;;16.50;99.90;;;;;;5013923;28;20042;-60
2021/09/19 06:39:13;;;;;;;49.00;30.08;;;16.60;99.90;;;;;;5014079;28;20034;-61
2021/09/19 06:41:39;;;;;;;51.58;30.88;;;16.60;99.90;;;;;;5013928;28;20044;-63
2021/09/19 06:44:05;;;;;;;50.42;31.33;;;16.70;99.90;;;;;;5014065;28;20045;-61
2021/09/19 06:46:31;;;;;;;48.65;31.23;;;16.70;99.90;;;;;;5014088;28;20032;-60
2021/09/19 06:49:02;;;;;;;50.97;32.13;;;16.70;99.90;;;;;;5014105;28;20101;-59
2021/09/19 06:51:28;;;;;;;62.08;33.10;;;16.70;99.90;;;;;;5014036;28;20038;-61
2021/09/19 06:53:54;;;;;;;60.45;32.60;;;16.70;99.90;;;;;;5013472;28;20475;-60
2021/09/19 06:56:21;;;;;;;49.63;31.45;;;16.80;99.90;;;;;;5014083;28;20113;-60
2021/09/19 06:58:48;;;;;;;56.58;32.03;;;16.80;99.90;;;;;;5012722;28;20387;-60
2021/09/19 07:01:15;;;;;;;54.28;32.05;;;16.70;99.90;;;;;;5011898;28;20524;-60
2021/09/19 07:03:42;;;;;;;53.15;31.23;;;16.80;99.90;;;;;;5001473;28;20113;-62
2021/09/19 07:06:08;;;;;;;49.88;30.70;;;16.80;99.90;;;;;;5010027;28;20034;-60
2021/09/19 07:08:34;;;;;;;49.80;30.65;;;16.80;99.90;;;;;;5014551;28;20030;-62
2021/09/19 07:11:00;;;;;;;55.22;31.33;;;16.90;99.90;;;;;;5015195;28;20041;-60
2021/09/19 07:13:25;;;;;;;50.28;31.88;;;16.90;99.90;;;;;;5015183;28;20061;-62
2021/09/19 07:19:20;;;;;;;50.95;30.77;;;16.90;99.90;;;;;;5015775;28;20080;-60
2021/09/19 07:21:46;;;;;;;63.95;38.00;;;16.90;99.90;;;;;;5015211;28;20025;-60
2021/09/19 07:24:11;;;;;;;77.07;32.13;;;16.90;99.90;;;;;;5014964;28;20042;-59
2021/09/19 07:26:37;;;;;;;50.45;30.45;;;17.00;99.90;;;;;;5015320;28;20114;-59
2021/09/19 07:29:03;;;;;;;49.53;30.17;;;17.00;99.90;;;;;;5015001;28;20062;-60
2021/09/19 07:31:29;;;;;;;51.85;30.05;;;17.00;99.90;;;;;;5014644;28;20052;-60
2021/09/19 07:33:55;;;;;;;55.28;31.38;;;17.10;99.90;;;;;;5015010;28;20053;-59
2021/09/19 07:36:46;;;;;;;55.00;33.03;;;17.20;99.90;;;;;;5013740;28;20362;-59
2021/09/19 07:39:12;;;;;;;58.38;33.28;;;17.30;99.90;;;;;;5012534;28;20022;-59
2021/09/19 07:41:38;;;;;;;52.28;32.22;;;17.40;99.90;;;;;;5013251;28;20041;-59
2021/09/19 07:44:04;;;;;;;58.20;32.65;;;17.40;99.90;;;;;;5012008;28;20503;-60
2021/09/19 07:46:30;;;;;;;57.90;33.65;;;17.50;99.90;;;;;;5013075;28;20109;-59
2021/09/19 07:48:56;;;;;;;52.90;31.30;;;17.50;99.90;;;;;;5012031;28;20564;-59
2021/09/19 07:51:23;;;;;;;61.33;31.65;;;17.60;99.90;;;;;;5012610;28;20132;-60
2021/09/19 07:53:50;;;;;;;53.85;32.85;;;17.70;99.90;;;;;;5012372;28;20025;-59
2021/09/19 07:56:16;;;;;;;57.00;32.78;;;17.70;99.90;;;;;;5013287;28;20030;-61
2021/09/19 07:58:41;;;;;;;51.10;31.92;;;17.80;99.90;;;;;;5012024;28;20030;-61
2021/09/19 08:01:07;;;;;;;59.28;32.17;;;17.90;99.90;;;;;;5012701;28;20080;-61
2021/09/19 08:03:33;;;;;;;56.20;32.20;;;18.00;99.90;;;;;;5011965;28;20026;-60
2021/09/19 08:05:59;;;;;;;56.55;33.08;;;18.10;99.90;;;;;;5012847;28;20549;-61
2021/09/19 08:08:24;;;;;;;56.97;33.17;;;18.20;99.90;;;;;;5010429;28;20030;-61
2021/09/19 08:10:51;;;;;;;59.08;33.08;;;18.30;99.90;;;;;;5011757;28;20073;-60
2021/09/19 08:13:16;;;;;;;58.03;32.25;;;18.30;99.90;;;;;;5012017;28;20030;-59
2021/09/19 08:15:42;;;;;;;62.85;32.50;;;18.40;99.90;;;;;;5012284;28;20079;-60
2021/09/19 08:18:08;;;;;;;56.45;33.90;;;18.60;99.90;;;;;;5011737;28;20038;-59
2021/09/19 08:20:34;;;;;;;54.15;32.60;;;18.80;99.90;;;;;;5012369;28;20038;-60
2021/09/19 08:22:59;;;;;;;52.67;33.00;;;19.00;99.90;;;;;;5002806;28;20030;-58
2021/09/19 08:25:25;;;;;;;53.97;33.08;;;19.00;99.90;;;;;;5006404;28;20029;-59
2021/09/19 08:27:52;;;;;;;62.67;33.78;;;19.30;99.90;;;;;;4999190;28;20033;-61
2021/09/19 08:30:17;;;;;;;65.13;34.28;;;19.40;99.90;;;;;;5012168;28;20580;-60
2021/09/19 08:32:43;;;;;;;58.22;35.38;;;19.50;99.90;;;;;;5011502;28;20112;-61
2021/09/19 08:35:11;;;;;;;67.32;34.22;;;19.70;99.90;;;;;;5012000;28;20476;-62
2021/09/19 08:37:37;;;;;;;60.50;34.70;;;19.80;99.90;;;;;;5011503;28;20026;-60
2021/09/19 08:40:05;;;;;;;59.45;36.05;;;19.90;99.90;;;;;;5011760;28;20022;-61
2021/09/19 08:42:32;;;;;;;63.15;35.55;;;20.00;99.90;;;;;;5011340;28;20109;-59
2021/09/19 08:44:57;;;;;;;54.75;34.70;;;20.00;99.90;;;;;;5011715;28;20104;-60
2021/09/19 08:47:27;;;;;;;57.45;33.88;;;20.10;99.90;;;;;;5011408;28;20464;-60
2021/09/19 08:49:53;;;;;;;60.25;35.25;;;20.30;99.90;;;;;;5011803;28;20038;-60
2021/09/19 08:52:18;;;;;;;55.80;36.75;;;20.40;99.90;;;;;;5011506;28;20465;-59
2021/09/19 08:54:44;;;;;;;62.08;36.40;;;20.50;99.90;;;;;;5011348;28;20032;-61
2021/09/19 08:57:10;;;;;;;59.95;36.92;;;20.70;99.90;;;;;;5011937;28;20511;-60
2021/09/19 08:59:48;;;;;;;56.63;36.90;;;20.80;99.90;;;;;;4995075;28;20392;-59
2021/09/19 09:02:15;;;;;;;62.50;36.85;;;21.00;99.90;;;;;;5002211;28;20034;-59
2021/09/19 09:04:41;;;;;;;57.50;36.55;;;21.20;99.90;;;;;;5010870;28;20034;-59
2021/09/19 09:07:07;;;;;;;61.03;35.42;;;21.20;99.90;;;;;;5011420;28;20026;-61
2021/09/19 09:09:33;;;;;;;60.80;36.63;;;21.30;99.90;;;;;;5010767;28;20396;-61
2021/09/19 09:12:02;;;;;;;55.30;35.17;;;21.20;99.90;;;;;;5011311;28;20053;-61
2021/09/19 09:14:28;;;;;;;64.82;37.67;;;21.10;99.90;;;;;;5010906;28;20132;-60
2021/09/19 09:17:11;;;;;;;57.15;34.33;;;21.20;99.90;;;;;;5007373;28;20101;-59
2021/09/19 09:19:38;;;;;;;61.38;36.42;;;21.40;99.90;;;;;;4990271;28;20480;-60
2021/09/19 09:22:04;;;;;;;53.05;34.22;;;21.60;99.90;;;;;;4997270;28;20100;-60
2021/09/19 09:24:29;;;;;;;55.60;35.28;;;21.80;99.90;;;;;;5010919;28;20500;-59
2021/09/19 09:26:55;;;;;;;55.70;37.05;;;22.00;99.90;;;;;;5011433;28;20025;-60
2021/09/19 09:29:21;;;;;;;53.90;34.90;;;22.10;99.90;;;;;;5010185;28;20041;-60
2021/09/19 09:31:51;;;;;;;51.47;34.03;;;22.20;99.90;;;;;;5011365;28;20050;-60
2021/09/19 09:34:21;;;;;;;53.60;34.05;;;22.30;99.90;;;;;;5010430;28;20026;-60
2021/09/19 09:36:57;;;;;;;55.05;34.35;;;22.30;99.90;;;;;;5011458;28;20178;-60
2021/09/19 09:39:26;;;;;;;53.42;32.90;;;22.50;99.90;;;;;;5009138;28;20092;-60
2021/09/19 09:41:58;;;;;;;50.35;32.63;;;22.50;99.90;;;;;;5011664;28;20030;-61
2021/09/19 09:44:30;;;;;;;48.78;32.22;;;22.40;99.90;;;;;;5010177;28;20026;-63
2021/09/19 09:46:57;;;;;;;46.38;30.92;;;22.50;99.90;;;;;;5011492;28;20537;-59
2021/09/19 09:49:35;;;;;;;45.95;31.42;;;22.50;99.90;;;;;;5010284;28;20037;-60
2021/09/19 09:52:28;;;;;;;58.45;33.30;;;22.50;99.90;;;;;;5011200;28;20507;-60
2021/09/19 09:55:13;;;;;;;49.70;32.38;;;22.70;99.90;;;;;;5009111;28;20033;-59
2021/09/19 09:58:11;;;;;;;46.85;31.00;;;22.60;99.90;;;;;;5011027;28;20171;-59
2021/09/19 10:00:38;;;;;;;42.95;28.83;;;22.60;99.90;;;;;;5011009;28;20080;-59
2021/09/19 10:03:04;;;;;;;47.83;30.67;;;22.60;99.90;;;;;;5010498;28;20081;-60
2021/09/19 10:05:30;;;;;;;52.22;32.92;;;22.50;99.90;;;;;;5010612;28;20037;-59
2021/09/19 10:07:58;;;;;;;48.30;30.10;;;22.50;99.90;;;;;;4999874;28;20026;-60
2021/09/19 10:10:27;;;;;;;43.35;29.73;;;22.60;99.90;;;;;;5008091;28;20029;-60
2021/09/19 10:12:53;;;;;;;38.95;26.80;;;22.80;99.90;;;;;;5010557;28;20392;-62
2021/09/19 10:15:21;;;;;;;42.75;27.38;;;22.70;99.90;;;;;;5010482;28;20026;-62
2021/09/19 10:17:47;;;;;;;43.25;27.90;;;22.60;99.90;;;;;;5011255;28;20034;-60
2021/09/19 10:20:37;;;;;;;49.90;27.92;;;22.50;99.90;;;;;;5009659;28;20030;-58
2021/09/19 10:23:03;;;;;;;40.28;25.13;;;22.50;99.90;;;;;;5000259;28;20029;-61
2021/09/19 10:25:36;;;;;;;36.47;25.05;;;22.50;99.90;;;;;;5010607;28;20037;-60
2021/09/19 10:28:21;;;;;;;40.47;25.02;;;22.50;99.90;;;;;;5002032;28;20049;-60
2021/09/19 10:31:09;;;;;;;36.72;23.35;;;22.50;99.90;;;;;;5007979;28;20042;-61
2021/09/19 10:33:54;;;;;;;35.30;22.83;;;22.50;99.90;;;;;;5010948;28;20033;-59
2021/09/19 10:36:34;;;;;;;41.58;23.15;;;22.40;99.90;;;;;;4989004;28;20030;-60
2021/09/19 10:39:12;;;;;;;52.53;34.75;;;22.40;99.90;;;;;;5012174;28;20029;-59
2021/09/19 10:42:07;;;;;;;53.95;37.95;;;22.30;99.90;;;;;;5014479;28;20065;-61
2021/09/19 10:44:52;;;;;;;72.73;48.13;;;22.10;99.90;;;;;;5013558;28;20041;-61
2021/09/19 10:47:35;;;;;;;64.13;41.38;;;22.00;99.90;;;;;;5014523;28;20033;-62
2021/09/19 10:50:21;;;;;;;59.50;40.65;;;22.00;99.90;;;;;;4989310;28;20033;-60
2021/09/19 10:52:50;;;;;;;53.88;37.42;;;21.90;99.90;;;;;;5011713;28;20034;-61
2021/09/19 10:55:19;;;;;;;59.85;40.35;;;21.70;99.90;;;;;;5002394;28;20435;-63
2021/09/19 10:58:06;;;;;;;57.53;36.92;;;21.90;99.90;;;;;;5014027;28;20029;-61
2021/09/19 11:00:34;;;;;;;49.92;34.30;;;21.90;99.90;;;;;;5013288;28;20129;-60
2021/09/19 11:03:05;;;;;;;54.20;36.72;;;21.90;99.90;;;;;;5013886;28;20084;-61
2021/09/19 11:05:35;;;;;;;56.50;35.78;;;21.90;99.90;;;;;;5013235;28;20045;-60
2021/09/19 11:08:07;;;;;;;47.38;33.70;;;21.90;99.90;;;;;;5014058;28;20060;-59
2021/09/19 11:10:39;;;;;;;47.33;32.00;;;22.00;99.90;;;;;;5012657;28;20053;-61
2021/09/19 11:13:27;;;;;;;51.95;33.05;;;21.90;99.90;;;;;;5013674;28;20499;-60
2021/09/19 11:16:23;;;;;;;48.15;32.42;;;22.10;99.90;;;;;;4991668;28;20054;-60
2021/09/19 11:18:55;;;;;;;40.75;28.60;;;22.10;99.90;;;;;;5012306;28;20046;-61
2021/09/19 11:21:21;;;;;;;45.78;31.88;;;22.20;99.90;;;;;;5012678;28;20137;-60
2021/09/19 11:23:52;;;;;;;48.85;30.75;;;22.20;99.90;;;;;;5011469;28;20129;-62
2021/09/19 11:26:26;;;;;;;44.10;32.20;;;22.10;99.90;;;;;;5002088;28;20391;-60
2021/09/19 11:28:56;;;;;;;43.33;31.35;;;22.20;99.90;;;;;;5012751;28;20088;-59
2021/09/19 11:31:22;;;;;;;41.67;29.45;;;22.20;99.90;;;;;;5004970;28;20248;-59
2021/09/19 11:33:48;;;;;;;46.65;29.55;;;22.20;99.90;;;;;;5006972;28;20038;-61
2021/09/19 11:36:18;;;;;;;38.55;28.13;;;22.30;99.90;;;;;;5013160;28;20113;-61
2021/09/19 11:38:46;;;;;;;42.65;29.23;;;22.30;99.90;;;;;;5012181;28;20065;-60
2021/09/19 11:41:14;;;;;;;39.08;26.90;;;22.30;99.90;;;;;;5012928;28;20021;-60
2021/09/19 11:43:41;;;;;;;37.42;26.75;;;22.30;99.90;;;;;;5012673;28;20029;-61
2021/09/19 11:46:09;;;;;;;36.40;26.33;;;22.30;99.90;;;;;;5012645;28;20504;-61
2021/09/19 11:48:35;;;;;;;42.88;26.98;;;22.30;99.90;;;;;;5011537;28;20085;-61
2021/09/19 11:51:02;;;;;;;40.10;26.17;;;22.30;99.90;;;;;;5012810;28;20072;-60
2021/09/19 11:53:29;;;;;;;36.15;26.42;;;22.30;99.90;;;;;;5013091;28;20105;-60
2021/09/19 11:55:55;;;;;;;39.83;27.33;;;22.30;99.90;;;;;;5012362;28;20034;-60
2021/09/19 11:58:22;;;;;;;37.78;26.45;;;22.50;99.90;;;;;;5013382;28;20022;-61
2021/09/19 12:01:00;;;;;;;37.97;24.55;;;22.50;99.90;;;;;;4999967;28;20049;-59
2021/09/19 12:03:27;;;;;;;35.67;25.98;;;22.60;99.90;;;;;;4985321;28;20026;-60
2021/09/19 12:05:55;;;;;;;39.53;30.40;;;22.50;99.90;;;;;;5008203;28;20527;-60
2021/09/19 12:08:22;;;;;;;45.13;33.85;;;22.60;99.90;;;;;;5012487;28;20041;-60
2021/09/19 12:10:50;;;;;;;48.63;34.63;;;22.60;99.90;;;;;;5011763;28;20587;-59
2021/09/19 12:13:29;;;;;;;48.13;35.55;;;22.70;99.90;;;;;;5012543;28;20543;-59
2021/09/19 12:15:57;;;;;;;49.22;34.28;;;22.70;99.90;;;;;;4986059;28;20456;-58
2021/09/19 12:18:26;;;;;;;49.00;35.38;;;22.80;99.90;;;;;;5012627;28;20465;-61
2021/09/19 12:21:01;;;;;;;50.88;34.88;;;22.80;99.90;;;;;;5011322;28;20029;-60
2021/09/19 12:23:31;;;;;;;54.55;36.90;;;22.60;99.90;;;;;;5012583;28;20037;-60
2021/09/19 12:25:57;;;;;;;56.05;39.83;;;22.60;99.90;;;;;;5011384;28;20051;-61
2021/09/19 12:28:34;;;;;;;50.25;35.90;;;22.50;99.90;;;;;;5012265;28;20603;-60
2021/09/19 12:31:00;;;;;;;50.67;37.42;;;22.50;99.90;;;;;;5010876;28;20042;-60
2021/09/19 12:33:27;;;;;;;70.88;46.08;;;22.40;99.90;;;;;;5012078;28;20026;-59
2021/09/19 12:35:53;;;;;;;55.83;38.42;;;22.30;99.90;;;;;;5011151;28;20025;-60